Time;durP1;ratioP1;P1;durP2;ratioP2;P2;SDS_P1;SDS_P2;PMS_P1;PMS_P2;Temp;Humidity;BMP_temperature;BMP_pressure;BME280_temperature;BME280_humidity;BME280_pressure;Samples;Min_cycle;Max_cycle;Signal;HPM_P1;HPM_P2
2023/03/20 00:08:14;;;;;;;53.65;29.35;;;1.30;99.90;;;;;;21012389;28;20044;-45
2023/03/20 00:18:21;;;;;;;64.60;32.13;;;1.20;99.90;;;;;;21011979;28;20044;-49
2023/03/20 00:28:42;;;;;;;49.65;27.20;;;1.10;99.90;;;;;;21011227;28;20036;-47
2023/03/20 00:38:44;;;;;;;59.47;31.48;;;1.00;99.90;;;;;;21001487;28;20338;-48
2023/03/20 00:48:46;;;;;;;59.08;31.33;;;1.00;99.90;;;;;;20997144;28;20063;-46
2023/03/20 00:58:49;;;;;;;66.57;32.72;;;0.90;99.90;;;;;;20978825;28;20028;-51
2023/03/20 01:08:50;;;;;;;61.90;31.58;;;0.80;99.90;;;;;;20996630;28;20438;-46
2023/03/20 01:18:52;;;;;;;58.75;31.50;;;0.80;99.90;;;;;;20994722;28;20040;-48
2023/03/20 01:28:54;;;;;;;67.53;34.88;;;0.70;99.90;;;;;;20976144;28;20039;-49
2023/03/20 01:38:57;;;;;;;62.67;31.73;;;0.70;99.90;;;;;;20975830;28;20036;-46
2023/03/20 01:49:28;;;;;;;65.57;34.28;;;0.80;99.90;;;;;;20974223;28;20039;-45
2023/03/20 01:59:40;;;;;;;66.78;33.58;;;0.80;99.90;;;;;;20973360;28;20037;-46
2023/03/20 02:09:42;;;;;;;71.13;33.90;;;0.70;99.90;;;;;;20973078;28;20401;-45
2023/03/20 02:20:08;;;;;;;65.05;34.58;;;0.60;99.90;;;;;;20971805;28;20024;-47
2023/03/20 02:30:30;;;;;;;;;;;0.70;99.90;;;;;;20971819;28;20090;-47
2023/03/20 02:40:51;;;;;;;72.38;37.55;;;1.00;99.90;;;;;;20970611;28;19908;-49
2023/03/20 02:51:07;;;;;;;69.33;36.03;;;1.40;99.90;;;;;;20970228;28;20123;-47
2023/03/20 03:01:19;;;;;;;53.55;31.13;;;1.90;99.90;;;;;;20969058;28;20032;-50
2023/03/20 03:11:21;;;;;;;63.08;32.58;;;1.80;99.90;;;;;;20969031;28;20555;-48
2023/03/20 03:21:28;;;;;;;59.92;31.80;;;1.40;99.90;;;;;;20969478;28;20040;-47
2023/03/20 03:31:31;;;;;;;61.88;33.63;;;1.30;99.90;;;;;;20967824;28;20090;-49
2023/03/20 03:42:00;;;;;;;60.28;32.10;;;1.00;99.90;;;;;;20967511;28;20036;-45
2023/03/20 03:52:07;;;;;;;75.13;38.45;;;0.70;99.90;;;;;;20964636;28;20044;-46
2023/03/20 04:02:09;;;;;;;70.53;35.28;;;0.70;99.90;;;;;;20967100;28;20032;-49
2023/03/20 04:12:35;;;;;;;80.65;39.50;;;0.50;99.90;;;;;;20991484;28;20052;-49
2023/03/20 04:22:37;;;;;;;82.00;37.90;;;0.40;99.90;;;;;;20953837;28;20113;-47
2023/03/20 04:32:44;;;;;;;78.47;40.47;;;0.20;99.90;;;;;;20980542;28;20363;-46
2023/03/20 04:43:14;;;;;;;95.93;45.95;;;0.30;99.90;;;;;;20660243;28;20054;-49
2023/03/20 04:53:17;;;;;;;80.28;42.28;;;0.80;99.90;;;;;;20644061;28;20038;-46
2023/03/20 05:03:22;;;;;;;69.63;36.58;;;1.40;99.90;;;;;;20658415;28;20101;-47
2023/03/20 05:13:24;;;;;;;73.20;36.72;;;1.20;99.90;;;;;;20738496;28;20399;-48
2023/03/20 05:23:36;;;;;;;74.47;37.05;;;0.90;99.90;;;;;;20978369;28;20065;-46
2023/03/20 05:33:58;;;;;;;64.82;33.08;;;0.90;99.90;;;;;;20975485;28;20094;-47
2023/03/20 05:44:18;;;;;;;68.50;35.63;;;1.00;99.90;;;;;;20990053;28;20083;-47
2023/03/20 05:54:34;;;;;;;74.32;37.42;;;1.00;99.90;;;;;;20977582;28;20032;-45
2023/03/20 06:05:11;;;;;;;83.63;40.53;;;1.10;99.90;;;;;;20735605;28;20045;-47
2023/03/20 06:15:25;;;;;;;100.55;44.58;;;1.20;99.90;;;;;;20777757;28;20080;-44
2023/03/20 06:25:33;;;;;;;79.47;39.53;;;1.30;99.90;;;;;;20765250;28;20457;-46
2023/03/20 06:35:35;;;;;;;92.20;45.22;;;1.40;99.90;;;;;;20888257;28;20040;-49
2023/03/20 06:45:37;;;;;;;79.53;42.28;;;1.90;99.90;;;;;;20968323;28;20482;-49
2023/03/20 06:55:48;;;;;;;83.47;44.45;;;2.20;99.90;;;;;;20969577;28;20101;-48
2023/03/20 07:05:50;;;;;;;56.92;35.60;;;3.10;99.90;;;;;;20987417;28;20032;-49
2023/03/20 07:15:54;;;;;;;57.25;33.72;;;4.00;99.90;;;;;;20968604;28;20118;-46
2023/03/20 07:25:58;;;;;;;49.50;31.88;;;4.40;99.90;;;;;;21035044;28;20020;-45
2023/03/20 07:35:59;;;;;;;45.15;29.15;;;5.00;99.90;;;;;;21052582;28;20058;-48
2023/03/20 07:46:03;;;;;;;42.67;28.25;;;5.50;99.90;;;;;;21042368;28;20040;-47
2023/03/20 07:56:06;;;;;;;44.50;28.88;;;5.80;99.90;;;;;;21085436;28;20028;-50
2023/03/20 08:06:08;;;;;;;44.05;28.48;;;6.00;99.90;;;;;;21067716;28;20466;-47
2023/03/20 08:16:10;;;;;;;45.67;30.05;;;6.40;99.90;;;;;;21083781;28;20040;-48
2023/03/20 08:26:12;;;;;;;40.30;27.67;;;6.80;99.90;;;;;;21083251;28;20039;-47
2023/03/20 08:36:14;;;;;;;34.97;24.95;;;7.50;99.90;;;;;;21081716;28;20066;-47
2023/03/20 08:46:16;;;;;;;36.05;24.55;;;8.40;99.90;;;;;;21082203;28;20057;-47
2023/03/20 08:56:18;;;;;;;40.15;27.35;;;8.50;99.90;;;;;;21081039;28;20177;-50
2023/03/20 09:06:19;;;;;;;32.92;24.55;;;8.90;99.90;;;;;;21080304;28;20032;-51
2023/03/20 09:16:21;;;;;;;35.00;25.50;;;9.80;99.90;;;;;;21078992;28;20044;-47
2023/03/20 09:26:22;;;;;;;33.75;25.70;;;11.10;99.90;;;;;;21078366;28;20031;-46
2023/03/20 09:36:24;;;;;;;30.77;23.63;;;12.20;99.90;;;;;;21078566;28;20058;-48
2023/03/20 09:46:34;;;;;;;31.48;24.35;;;12.50;99.90;;;;;;21077069;28;20032;-47
2023/03/20 09:56:36;;;;;;;32.95;23.90;;;11.90;99.90;;;;;;21058698;28;20028;-51
2023/03/20 10:06:38;;;;;;;33.35;24.55;;;11.60;99.90;;;;;;21075616;28;20039;-51
2023/03/20 10:16:54;;;;;;;30.33;22.80;;;12.20;99.90;;;;;;21074494;28;20052;-48
2023/03/20 10:27:09;;;;;;;29.85;22.63;;;12.80;99.90;;;;;;21073521;28;20085;-48
2023/03/20 10:37:19;;;;;;;34.15;22.38;;;13.20;99.90;;;;;;21073516;28;20169;-50
2023/03/20 10:47:21;;;;;;;;;;;13.90;99.90;;;;;;21072850;28;20031;-48
2023/03/20 10:57:26;;;;;;;32.85;24.05;;;14.40;99.90;;;;;;21072514;28;19916;-51
2023/03/20 11:07:32;;;;;;;29.73;23.02;;;13.60;99.90;;;;;;21071567;28;20552;-51
2023/03/20 11:17:34;;;;;;;33.25;23.45;;;13.00;99.90;;;;;;21069928;28;20039;-51
2023/03/20 11:27:36;;;;;;;28.10;22.40;;;12.70;99.90;;;;;;21070336;28;20085;-48
2023/03/20 11:37:44;;;;;;;32.83;24.75;;;14.10;99.90;;;;;;21069875;28;20039;-50
2023/03/20 11:47:51;;;;;;;31.23;23.60;;;14.20;99.90;;;;;;21070418;28;20032;-51
2023/03/20 11:58:05;;;;;;;33.03;25.73;;;14.20;99.90;;;;;;21068539;28;20062;-50
2023/03/20 12:08:24;;;;;;;34.33;24.88;;;14.20;99.90;;;;;;21068802;28;20074;-48
2023/03/20 12:18:32;;;;;;;30.52;23.55;;;14.90;99.90;;;;;;21068113;28;20085;-47
2023/03/20 12:28:53;;;;;;;29.02;22.50;;;14.90;99.90;;;;;;21067541;28;20089;-48
2023/03/20 12:38:55;;;;;;;32.17;24.45;;;14.70;99.90;;;;;;21082611;28;20432;-46
2023/03/20 12:49:00;;;;;;;34.67;26.00;;;13.30;99.90;;;;;;21081553;28;20032;-50
2023/03/20 12:59:09;;;;;;;32.35;24.42;;;13.40;99.90;;;;;;21080414;28;20084;-50
2023/03/20 13:09:39;;;;;;;33.87;24.10;;;12.90;99.90;;;;;;21081121;28;20044;-47
2023/03/20 13:20:15;;;;;;;34.70;24.02;;;12.70;99.90;;;;;;21079019;28;20044;-51
2023/03/20 13:30:34;;;;;;;35.40;25.48;;;11.90;99.90;;;;;;21078107;28;20024;-51
2023/03/20 13:40:45;;;;;;;34.72;26.08;;;11.70;99.90;;;;;;21077012;28;20062;-51
2023/03/20 13:51:22;;;;;;;37.00;25.83;;;12.00;99.90;;;;;;21076953;28;20020;-49
2023/03/20 14:01:44;;;;;;;32.95;25.63;;;12.30;99.90;;;;;;20654689;28;20602;-50
2023/03/20 14:11:46;;;;;;;35.38;26.40;;;11.60;99.90;;;;;;20653509;28;20085;-46
2023/03/20 14:21:53;;;;;;;35.15;26.30;;;10.80;99.90;;;;;;20653201;28;20054;-47
2023/03/20 14:32:14;;;;;;;40.90;27.17;;;10.70;99.90;;;;;;20705664;28;20053;-50
2023/03/20 14:42:28;;;;;;;34.63;24.55;;;11.20;99.90;;;;;;20842871;28;20439;-50
2023/03/20 14:52:49;;;;;;;34.25;24.65;;;11.30;99.90;;;;;;20904417;28;20029;-52
2023/03/20 15:03:12;;;;;;;37.75;27.40;;;11.40;99.90;;;;;;20901416;28;20041;-50
2023/03/20 15:13:15;;;;;;;32.75;23.42;;;11.10;99.90;;;;;;20923843;28;20055;-50
2023/03/20 15:23:17;;;;;;;32.60;25.13;;;10.70;99.90;;;;;;20986681;28;20421;-51
2023/03/20 15:33:41;;;;;;;31.45;23.65;;;10.50;99.90;;;;;;20982854;28;20033;-51
2023/03/20 15:43:43;;;;;;;36.13;26.98;;;10.60;99.90;;;;;;20967802;28;20037;-47
2023/03/20 15:53:47;;;;;;;38.92;27.33;;;10.60;99.90;;;;;;20984688;28;20016;-50
2023/03/20 16:03:49;;;;;;;39.20;28.40;;;10.50;99.90;;;;;;20986056;28;20029;-50
2023/03/20 16:13:52;;;;;;;41.80;29.17;;;10.30;99.90;;;;;;20999692;28;20044;-51
2023/03/20 16:23:58;;;;;;;42.95;31.05;;;9.70;99.90;;;;;;20999717;28;20032;-47
2023/03/20 16:34:19;;;;;;;46.35;30.88;;;9.30;99.90;;;;;;20994581;28;20508;-51
2023/03/20 16:44:28;;;;;;;43.30;31.30;;;9.00;99.90;;;;;;20997419;28;20028;-49
2023/03/20 16:54:34;;;;;;;56.88;33.35;;;8.20;99.90;;;;;;20996541;28;20032;-51
2023/03/20 17:04:39;;;;;;;52.63;35.13;;;7.50;99.90;;;;;;20978547;28;20032;-52
2023/03/20 17:14:40;;;;;;;62.97;38.50;;;6.70;99.90;;;;;;20994780;28;20459;-50
2023/03/20 17:24:42;;;;;;;59.28;37.45;;;6.50;99.90;;;;;;20994471;28;20037;-51
2023/03/20 17:34:44;;;;;;;54.15;34.38;;;6.60;99.90;;;;;;20994248;28;20036;-50
2023/03/20 17:44:47;;;;;;;48.67;30.42;;;6.40;99.90;;;;;;20992812;28;20394;-49
2023/03/20 17:54:49;;;;;;;49.45;32.13;;;5.90;99.90;;;;;;20992196;28;20367;-54
2023/03/20 18:04:51;;;;;;;58.55;29.20;;;5.50;99.90;;;;;;20989663;28;20053;-48
2023/03/20 18:14:52;;;;;;;40.72;24.90;;;5.20;99.90;;;;;;20989667;28;20036;-46
2023/03/20 18:24:54;;;;;;;47.95;26.80;;;4.70;99.90;;;;;;20989281;28;20047;-47
2023/03/20 18:34:55;;;;;;;51.95;29.45;;;4.10;99.90;;;;;;20987160;28;20563;-48
2023/03/20 18:44:57;;;;;;;62.00;33.72;;;3.60;99.90;;;;;;20987478;28;20093;-48
2023/03/20 18:54:59;;;;;;;51.42;31.50;;;3.40;99.90;;;;;;20987184;28;20032;-47
2023/03/20 19:05:01;;;;;;;46.88;27.55;;;3.20;99.90;;;;;;20986285;28;20036;-46
2023/03/20 19:15:02;;;;;;;48.72;27.58;;;3.00;99.90;;;;;;20985788;28;20048;-51
2023/03/20 19:25:05;;;;;;;47.50;28.88;;;3.30;99.90;;;;;;20967567;28;20032;-48
2023/03/20 19:35:08;;;;;;;41.95;26.17;;;3.90;99.90;;;;;;20986473;28;20088;-50
2023/03/20 19:45:10;;;;;;;37.10;22.48;;;4.30;99.90;;;;;;20997827;28;20490;-49
2023/03/20 19:55:12;;;;;;;32.90;20.63;;;4.80;99.90;;;;;;21002280;28;20063;-50
2023/03/20 20:05:19;;;;;;;30.92;18.55;;;5.10;99.90;;;;;;21001426;28;20039;-47
2023/03/20 20:15:20;;;;;;;25.33;16.67;;;5.10;99.90;;;;;;20981777;28;20094;-50
2023/03/20 20:25:22;;;;;;;25.10;15.38;;;5.20;99.90;;;;;;20998538;28;20059;-50
2023/03/20 20:35:25;;;;;;;23.17;13.23;;;5.20;99.90;;;;;;20998215;28;20032;-46
2023/03/20 20:45:28;;;;;;;21.67;13.40;;;4.90;99.90;;;;;;20997022;28;20024;-49
2023/03/20 20:55:30;;;;;;;22.92;14.52;;;4.30;99.90;;;;;;20995340;28;20025;-50
2023/03/20 21:05:34;;;;;;;24.52;15.82;;;3.70;99.90;;;;;;20996142;28;20421;-49
2023/03/20 21:15:35;;;;;;;25.85;16.00;;;3.30;99.90;;;;;;20994691;28;20055;-48
2023/03/20 21:25:37;;;;;;;26.25;16.63;;;3.00;99.90;;;;;;20993838;28;20083;-48
2023/03/20 21:35:39;;;;;;;30.55;17.48;;;3.10;99.90;;;;;;20993815;28;20039;-47
2023/03/20 21:45:41;;;;;;;30.00;18.50;;;3.00;99.90;;;;;;20992895;28;20537;-47
2023/03/20 21:55:43;;;;;;;30.67;18.98;;;2.90;99.90;;;;;;20992025;28;20032;-47
2023/03/20 22:05:45;;;;;;;30.60;18.48;;;3.00;99.90;;;;;;20983027;28;20110;-50
2023/03/20 22:15:46;;;;;;;28.90;17.83;;;3.10;99.90;;;;;;20972397;28;20126;-47
2023/03/20 22:26:00;;;;;;;23.88;15.90;;;3.50;99.90;;;;;;20982723;28;20032;-47
2023/03/20 22:36:01;;;;;;;23.67;15.35;;;3.90;99.90;;;;;;20988750;28;20386;-50
2023/03/20 22:46:03;;;;;;;21.73;14.88;;;4.10;99.90;;;;;;20987640;28;20428;-47
2023/03/20 22:56:05;;;;;;;20.92;13.30;;;4.30;99.90;;;;;;20987881;28;20082;-48
2023/03/20 23:06:26;;;;;;;24.17;13.50;;;4.30;99.90;;;;;;20986722;28;20043;-49
2023/03/20 23:16:27;;;;;;;20.67;13.53;;;4.10;99.90;;;;;;20985461;28;20566;-46
2023/03/20 23:26:29;;;;;;;23.55;14.15;;;4.10;99.90;;;;;;20985270;28;20086;-48
2023/03/20 23:36:31;;;;;;;22.02;14.75;;;4.10;99.90;;;;;;20985913;28;20490;-49
2023/03/20 23:46:33;;;;;;;25.60;16.65;;;3.90;99.90;;;;;;20966773;28;20571;-49
2023/03/20 23:56:35;;;;;;;35.70;21.08;;;3.60;99.90;;;;;;20984426;28;20449;-46
